createdAt,value
2022-12-09T00:01:16.791Z,36.10
2022-12-09T00:03:45.782Z,30.60
2022-12-09T00:06:19.900Z,29.73
2022-12-09T00:08:49.164Z,30.57
2022-12-09T00:11:18.279Z,28.80
2022-12-09T00:13:49.612Z,29.37
2022-12-09T00:16:18.583Z,30.57
2022-12-09T00:18:47.527Z,32.40
2022-12-09T00:21:20.004Z,39.77
2022-12-09T00:23:49.108Z,30.70
2022-12-09T00:26:18.785Z,33.97
2022-12-09T00:28:47.940Z,32.40
2022-12-09T00:31:18.305Z,33.10
2022-12-09T00:33:47.842Z,31.30
2022-12-09T00:36:19.616Z,34.73
2022-12-09T00:38:49.195Z,34.83
2022-12-09T00:41:18.127Z,33.00
2022-12-09T00:43:49.033Z,34.63
2022-12-09T00:46:18.398Z,31.77
2022-12-09T00:48:48.599Z,34.87
2022-12-09T00:51:20.506Z,34.93
2022-12-09T00:53:53.485Z,33.20
2022-12-09T00:56:22.825Z,36.63
2022-12-09T00:58:51.540Z,34.20
2022-12-09T01:01:20.233Z,33.07
2022-12-09T01:03:48.960Z,34.17
2022-12-09T01:06:22.119Z,33.77
2022-12-09T01:08:51.014Z,32.87
2022-12-09T01:11:21.610Z,35.87
2022-12-09T01:13:51.171Z,34.77
2022-12-09T01:16:21.331Z,31.00
2022-12-09T01:18:50.224Z,35.50
2022-12-09T01:21:20.301Z,31.83
2022-12-09T01:23:48.727Z,31.67
2022-12-09T01:26:17.402Z,28.93
2022-12-09T01:28:46.539Z,27.83
2022-12-09T01:31:19.440Z,32.30
2022-12-09T01:33:48.213Z,38.07
2022-12-09T01:36:19.988Z,27.83
2022-12-09T01:38:49.334Z,31.63
2022-12-09T01:41:19.299Z,35.37
2022-12-09T01:44:02.758Z,31.00
2022-12-09T01:46:31.297Z,28.97
2022-12-09T01:48:59.844Z,29.77
2022-12-09T01:51:30.557Z,30.53
2022-12-09T01:54:00.154Z,35.00
2022-12-09T01:56:31.709Z,27.87
2022-12-09T01:59:05.275Z,33.67
2022-12-09T02:01:36.085Z,44.17
2022-12-09T02:04:05.222Z,33.23
2022-12-09T02:06:37.085Z,32.70
2022-12-09T02:09:08.099Z,29.23
2022-12-09T02:11:57.230Z,37.73
2022-12-09T02:14:29.573Z,41.30
2022-12-09T02:17:17.058Z,43.77
2022-12-09T02:20:01.481Z,31.80
2022-12-09T02:22:39.595Z,35.23
2022-12-09T02:25:22.125Z,42.50
2022-12-09T02:28:00.393Z,35.90
2022-12-09T02:30:37.708Z,40.53
2022-12-09T02:33:22.164Z,40.20
2022-12-09T02:36:10.426Z,38.67
2022-12-09T02:38:51.772Z,40.63
2022-12-09T02:48:38.043Z,41.13
2022-12-09T02:51:37.929Z,38.10
2022-12-09T03:10:08.274Z,66.33
2022-12-09T03:34:12.736Z,39.53
2022-12-09T03:41:36.188Z,28.37
2022-12-09T03:49:03.081Z,37.67
2022-12-09T04:29:20.602Z,44.50
2022-12-09T04:31:52.509Z,37.77
2022-12-09T04:34:30.909Z,37.87
2022-12-09T05:35:12.672Z,362.47
2022-12-09T05:37:45.364Z,332.83
2022-12-09T05:40:34.258Z,839.37
2022-12-09T05:43:03.426Z,753.47
2022-12-09T05:45:32.360Z,426.90
2022-12-09T05:48:01.424Z,261.40
2022-12-09T05:50:31.887Z,228.67
2022-12-09T05:53:00.436Z,490.57
2022-12-09T05:55:29.105Z,333.33
2022-12-09T05:57:58.015Z,470.87
2022-12-09T06:00:26.826Z,231.10
2022-12-09T06:02:56.790Z,293.60
2022-12-09T06:05:25.666Z,408.50
2022-12-09T06:07:55.772Z,470.87
2022-12-09T06:10:24.807Z,398.43
2022-12-09T06:12:55.542Z,469.93
2022-12-09T06:15:31.230Z,551.67
2022-12-09T06:18:02.378Z,303.27
2022-12-09T06:20:31.492Z,278.73
2022-12-09T06:23:01.924Z,211.60
2022-12-09T06:25:30.977Z,65.70
2022-12-09T06:27:59.700Z,196.43
2022-12-09T06:30:29.662Z,73.30
2022-12-09T06:32:58.496Z,41.97
2022-12-09T06:35:27.905Z,34.20
2022-12-09T06:37:56.955Z,55.07
2022-12-09T06:40:27.180Z,46.17
2022-12-09T06:42:56.007Z,37.60
2022-12-09T06:45:24.769Z,45.60
2022-12-09T06:47:53.675Z,39.13
2022-12-09T06:50:22.384Z,46.17
2022-12-09T06:52:51.364Z,42.07
2022-12-09T06:55:19.858Z,52.70
2022-12-09T06:57:49.842Z,52.60
2022-12-09T07:00:19.011Z,45.77
2022-12-09T07:02:47.767Z,55.07
2022-12-09T07:05:17.505Z,55.67
2022-12-09T07:07:50.802Z,61.97
2022-12-09T07:10:20.723Z,44.13
2022-12-09T07:12:50.719Z,45.70
2022-12-09T07:15:19.443Z,50.37
2022-12-09T07:17:48.320Z,53.20
2022-12-09T07:20:17.905Z,50.63
2022-12-09T07:22:46.600Z,48.13
2022-12-09T07:25:15.343Z,40.07
2022-12-09T07:27:44.225Z,44.40
2022-12-09T07:30:14.920Z,43.87
2022-12-09T07:32:43.759Z,45.27
2022-12-09T07:35:12.530Z,40.63
2022-12-09T07:37:41.366Z,39.40
2022-12-09T07:40:10.524Z,45.43
2022-12-09T07:42:39.208Z,44.17
2022-12-09T07:45:09.135Z,38.30
2022-12-09T07:47:39.461Z,95.47
2022-12-09T07:50:09.784Z,83.77
2022-12-09T07:52:38.447Z,79.13
2022-12-09T07:55:09.316Z,95.50
2022-12-09T07:57:38.815Z,95.00
2022-12-09T08:00:08.869Z,85.83
2022-12-09T08:02:45.016Z,110.37
2022-12-09T08:05:14.682Z,303.97
2022-12-09T08:07:46.724Z,565.20
2022-12-09T08:10:16.390Z,508.87
2022-12-09T08:12:46.763Z,590.00
2022-12-09T08:15:17.075Z,523.17
2022-12-09T08:17:47.262Z,867.73
2022-12-09T08:20:16.747Z,580.80
2022-12-09T08:22:46.122Z,547.10
2022-12-09T08:25:15.671Z,507.40
2022-12-09T08:27:45.022Z,385.20
2022-12-09T08:30:17.242Z,447.33
2022-12-09T08:32:47.749Z,368.93
2022-12-09T08:35:16.875Z,390.00
2022-12-09T08:37:47.205Z,596.70
2022-12-09T08:40:16.703Z,580.27
2022-12-09T08:42:45.299Z,235.00
2022-12-09T08:45:13.972Z,460.33
2022-12-09T08:47:43.535Z,393.33
2022-12-09T08:50:14.493Z,320.47
2022-12-09T08:52:43.844Z,612.17
2022-12-09T08:55:12.756Z,467.83
2022-12-09T08:57:41.797Z,457.50
2022-12-09T09:00:12.111Z,270.60
2022-12-09T09:02:41.362Z,436.63
2022-12-09T09:05:10.652Z,287.20
2022-12-09T09:07:41.032Z,258.70
2022-12-09T09:10:11.752Z,198.37
2022-12-09T09:12:43.546Z,307.03
2022-12-09T09:15:13.291Z,196.80
2022-12-09T09:17:48.184Z,331.73
2022-12-09T09:20:20.796Z,232.63
2022-12-09T09:22:51.052Z,181.73
2022-12-09T09:25:19.884Z,169.50
2022-12-09T09:27:48.524Z,128.10
2022-12-09T09:30:17.785Z,291.73
2022-12-09T09:32:46.486Z,195.57
2022-12-09T09:35:15.767Z,62.80
2022-12-09T09:37:44.623Z,69.37
2022-12-09T09:40:15.165Z,50.93
2022-12-09T09:42:49.189Z,44.53
2022-12-09T09:45:21.310Z,47.27
2022-12-09T09:47:52.992Z,48.27
2022-12-09T09:50:30.806Z,52.60
2022-12-09T09:53:03.192Z,50.30
2022-12-09T09:55:43.286Z,61.70
2022-12-09T09:58:19.040Z,57.37
2022-12-09T10:01:05.316Z,47.60
2022-12-09T10:03:44.753Z,44.50
2022-12-09T10:06:24.050Z,50.30
2022-12-09T10:08:59.507Z,40.17
2022-12-09T10:11:33.230Z,41.50
2022-12-09T10:14:10.201Z,38.83
2022-12-09T10:16:45.547Z,41.87
2022-12-09T10:19:20.802Z,31.80
2022-12-09T10:21:52.141Z,40.93
2022-12-09T10:24:26.844Z,40.57
2022-12-09T10:27:02.915Z,38.67
2022-12-09T10:29:56.761Z,43.00
2022-12-09T10:32:27.968Z,42.00
2022-12-09T10:34:57.172Z,37.07
2022-12-09T10:37:32.214Z,30.83
2022-12-09T10:40:20.435Z,37.30
2022-12-09T10:43:10.215Z,28.73
2022-12-09T10:46:16.874Z,30.87
2022-12-09T10:48:37.633Z,29.00
2022-12-09T10:51:11.556Z,30.67
2022-12-09T10:53:48.731Z,28.07
2022-12-09T10:56:24.375Z,27.97
2022-12-09T10:59:11.451Z,40.63
2022-12-09T11:01:50.883Z,37.40
2022-12-09T11:04:25.227Z,29.03
2022-12-09T11:06:59.430Z,28.23
2022-12-09T11:09:31.249Z,27.80
2022-12-09T11:12:01.368Z,37.63
2022-12-09T11:14:41.555Z,29.57
2022-12-09T11:17:16.728Z,31.00
2022-12-09T11:19:48.964Z,35.93
2022-12-09T11:22:32.682Z,36.50
2022-12-09T11:25:20.044Z,35.20
2022-12-09T11:27:52.270Z,31.17
2022-12-09T11:30:25.512Z,32.73
2022-12-09T11:33:02.391Z,40.80
2022-12-09T11:35:38.212Z,29.60
2022-12-09T11:38:19.033Z,30.67
2022-12-09T11:41:00.834Z,32.00
2022-12-09T11:43:34.175Z,34.33
2022-12-09T11:46:16.231Z,29.10
2022-12-09T11:48:50.942Z,33.90
2022-12-09T11:51:23.668Z,28.27
2022-12-09T11:54:01.663Z,28.13
2022-12-09T11:56:33.635Z,28.60
2022-12-09T11:59:05.551Z,26.33
2022-12-09T12:01:46.160Z,29.57
2022-12-09T12:04:17.310Z,32.27
2022-12-09T12:06:49.460Z,25.80
2022-12-09T12:09:23.578Z,24.17
2022-12-09T12:12:02.088Z,27.50
2022-12-09T12:14:31.604Z,31.70
2022-12-09T12:17:10.352Z,41.87
2022-12-09T12:19:40.229Z,33.93
2022-12-09T12:22:40.771Z,30.90
2022-12-09T12:25:32.569Z,26.37
2022-12-09T12:28:32.809Z,31.30
2022-12-09T12:31:16.243Z,31.10
2022-12-09T12:34:23.671Z,26.60
2022-12-09T12:36:53.705Z,26.93
2022-12-09T12:39:41.435Z,26.13
2022-12-09T12:42:23.779Z,27.90
2022-12-09T12:45:20.092Z,28.13
2022-12-09T12:47:56.704Z,33.47
2022-12-09T12:50:56.074Z,30.53
2022-12-09T12:53:36.036Z,25.57
2022-12-09T12:56:08.182Z,25.63
2022-12-09T12:58:51.237Z,30.73
2022-12-09T13:01:30.168Z,27.93
2022-12-09T13:04:08.680Z,30.87
2022-12-09T13:06:44.184Z,32.50
2022-12-09T13:09:17.529Z,31.67
2022-12-09T13:11:57.173Z,24.07
2022-12-09T13:14:34.116Z,26.80
2022-12-09T13:17:06.143Z,28.63
2022-12-09T13:19:41.755Z,29.53
2022-12-09T13:22:19.379Z,22.57
2022-12-09T13:24:59.960Z,24.17
2022-12-09T13:27:38.387Z,26.30
2022-12-09T13:30:13.293Z,27.60
2022-12-09T13:33:13.404Z,26.63
2022-12-09T13:35:45.430Z,21.30
2022-12-09T13:38:33.422Z,26.93
2022-12-09T13:41:01.854Z,22.63
2022-12-09T13:43:33.665Z,21.57
2022-12-09T13:46:03.017Z,27.83
2022-12-09T13:48:49.021Z,22.63
2022-12-09T13:51:18.970Z,26.30
2022-12-09T13:53:53.571Z,26.37
2022-12-09T13:56:30.613Z,30.20
2022-12-09T13:59:14.349Z,19.53
2022-12-09T14:01:48.123Z,24.97
2022-12-09T14:04:20.227Z,22.67
2022-12-09T14:07:10.077Z,24.70
2022-12-09T14:09:48.716Z,23.50
2022-12-09T14:12:52.234Z,20.30
2022-12-09T14:15:38.532Z,17.67
2022-12-09T14:18:28.323Z,20.70
2022-12-09T14:21:22.921Z,20.97
2022-12-09T14:24:28.941Z,24.23
2022-12-09T14:27:16.617Z,20.93
2022-12-09T14:29:47.517Z,23.43
2022-12-09T14:32:27.656Z,27.87
2022-12-09T14:35:19.413Z,23.63
2022-12-09T14:38:00.450Z,28.87
2022-12-09T14:40:51.851Z,32.37
2022-12-09T14:43:39.291Z,37.00
2022-12-09T14:46:19.923Z,33.13
2022-12-09T14:48:54.262Z,36.37
2022-12-09T14:51:25.991Z,34.87
2022-12-09T14:53:58.291Z,35.27
2022-12-09T14:56:28.860Z,38.00
2022-12-09T14:59:03.771Z,36.53
2022-12-09T15:01:48.443Z,33.83
2022-12-09T15:04:29.882Z,39.40
2022-12-09T15:07:12.951Z,37.33
2022-12-09T15:09:53.727Z,36.07
2022-12-09T15:12:26.163Z,43.20
2022-12-09T15:14:59.895Z,38.90
2022-12-09T15:17:31.484Z,37.40
2022-12-09T15:20:12.400Z,34.97
2022-12-09T15:22:40.957Z,32.70
2022-12-09T15:25:18.220Z,35.80
2022-12-09T15:27:56.915Z,31.93
2022-12-09T15:30:34.408Z,29.90
2022-12-09T15:33:03.166Z,30.97
2022-12-09T15:35:33.935Z,38.03
2022-12-09T15:38:07.351Z,40.50
2022-12-09T15:40:37.505Z,36.20
2022-12-09T15:43:11.610Z,33.30
2022-12-09T15:45:44.851Z,30.97
2022-12-09T15:48:19.310Z,42.47
2022-12-09T15:50:53.087Z,40.23
2022-12-09T15:53:25.915Z,39.10
2022-12-09T15:55:57.842Z,32.10
2022-12-09T15:58:30.192Z,35.20
2022-12-09T16:01:00.186Z,29.77
2022-12-09T16:03:31.437Z,35.70
2022-12-09T16:06:03.409Z,37.93
2022-12-09T16:08:34.688Z,30.63
2022-12-09T16:11:03.288Z,36.37
2022-12-09T16:13:31.868Z,32.83
2022-12-09T16:16:04.357Z,40.30
2022-12-09T16:18:35.468Z,33.87
2022-12-09T16:21:22.366Z,34.40
2022-12-09T16:23:53.330Z,30.37
2022-12-09T16:26:25.984Z,34.87
2022-12-09T16:28:57.625Z,43.47
2022-12-09T16:31:27.834Z,41.83
2022-12-09T16:33:57.133Z,34.97
2022-12-09T16:36:28.066Z,32.73
2022-12-09T16:39:33.374Z,38.43
2022-12-09T16:42:03.198Z,35.63
2022-12-09T16:44:34.722Z,39.23
2022-12-09T16:47:16.513Z,44.73
2022-12-09T16:49:47.632Z,36.20
2022-12-09T16:52:18.363Z,36.70
2022-12-09T16:54:48.253Z,37.27
2022-12-09T16:57:18.658Z,38.70
2022-12-09T16:59:47.890Z,48.07
2022-12-09T17:02:30.451Z,38.27
2022-12-09T17:05:00.689Z,41.63
2022-12-09T17:07:29.204Z,44.67
2022-12-09T17:09:57.681Z,50.90
2022-12-09T17:12:26.258Z,48.87
2022-12-09T17:14:54.731Z,54.77
2022-12-09T17:17:24.596Z,46.37
2022-12-09T17:19:53.133Z,59.07
2022-12-09T17:22:21.654Z,65.50
2022-12-09T17:24:50.475Z,66.00
2022-12-09T17:27:18.977Z,59.57
2022-12-09T17:29:47.580Z,57.20
2022-12-09T17:32:16.041Z,66.73
2022-12-09T17:34:45.814Z,55.90
2022-12-09T17:37:14.338Z,52.03
2022-12-09T17:39:42.815Z,54.93
2022-12-09T17:42:11.654Z,58.40
2022-12-09T17:44:40.060Z,55.70
2022-12-09T17:47:08.562Z,50.10
2022-12-09T17:49:36.983Z,52.47
2022-12-09T17:52:06.946Z,48.67
2022-12-09T17:54:35.383Z,112.00
2022-12-09T17:57:03.820Z,83.83
2022-12-09T17:59:32.378Z,56.93
2022-12-09T18:02:03.497Z,51.17
2022-12-09T18:04:32.220Z,52.77
2022-12-09T18:07:00.671Z,51.67
2022-12-09T18:09:31.386Z,64.20
2022-12-09T18:11:59.875Z,58.53
2022-12-09T18:14:29.625Z,58.23
2022-12-09T18:16:58.086Z,57.90
2022-12-09T18:19:27.047Z,56.60
2022-12-09T18:21:56.078Z,57.57
2022-12-09T18:24:24.854Z,49.57
2022-12-09T18:26:54.716Z,64.83
2022-12-09T18:29:23.982Z,56.43
2022-12-09T18:31:55.737Z,63.90
2022-12-09T18:34:24.661Z,62.07
2022-12-09T18:36:53.383Z,58.70
2022-12-09T18:39:22.902Z,58.03
2022-12-09T18:41:51.432Z,61.20
2022-12-09T18:44:21.366Z,63.97
2022-12-09T18:46:51.381Z,68.30
2022-12-09T18:49:22.475Z,69.03
2022-12-09T18:51:52.458Z,56.27
2022-12-09T18:54:23.741Z,59.03
2022-12-09T18:56:52.510Z,60.63
2022-12-09T18:59:24.991Z,67.17
2022-12-09T19:01:54.117Z,91.43
2022-12-09T19:04:26.950Z,108.67
2022-12-09T19:06:57.207Z,83.47
2022-12-09T19:09:28.453Z,72.17
2022-12-09T19:11:56.977Z,56.63
2022-12-09T19:14:26.791Z,59.43
2022-12-09T19:16:55.492Z,54.33
2022-12-09T19:19:25.929Z,55.73
2022-12-09T19:21:55.131Z,69.63
2022-12-09T19:24:24.762Z,70.30
2022-12-09T19:26:54.524Z,69.27
2022-12-09T19:29:24.540Z,73.07
2022-12-09T19:31:54.923Z,53.77
2022-12-09T19:34:25.534Z,68.43
2022-12-09T19:36:55.659Z,71.17
2022-12-09T19:39:26.805Z,79.60
2022-12-09T19:41:55.260Z,61.73
2022-12-09T19:44:52.700Z,80.37
2022-12-09T19:47:14.179Z,75.57
2022-12-09T19:49:44.297Z,73.67
2022-12-09T19:52:12.766Z,60.90
2022-12-09T19:54:41.413Z,52.10
2022-12-09T19:57:10.556Z,51.90
2022-12-09T19:59:39.042Z,62.00
2022-12-09T20:02:11.838Z,57.93
2022-12-09T20:04:50.446Z,51.00
2022-12-09T20:07:19.440Z,61.07
2022-12-09T20:09:48.146Z,60.87
2022-12-09T20:12:16.626Z,68.80
2022-12-09T20:14:45.149Z,58.70
2022-12-09T20:17:13.607Z,60.57
2022-12-09T20:19:43.398Z,50.87
2022-12-09T20:22:11.859Z,53.57
2022-12-09T20:24:40.233Z,52.73
2022-12-09T20:27:08.667Z,51.57
2022-12-09T20:29:38.368Z,79.00
2022-12-09T20:32:08.368Z,58.73
2022-12-09T20:34:37.216Z,51.90
2022-12-09T20:37:07.226Z,59.37
2022-12-09T20:39:35.751Z,62.63
2022-12-09T20:42:04.257Z,66.60
2022-12-09T20:44:33.346Z,70.53
2022-12-09T20:47:01.762Z,57.57
2022-12-09T20:49:30.621Z,53.27
2022-12-09T20:51:59.271Z,49.73
2022-12-09T20:54:29.077Z,52.37
2022-12-09T20:56:57.733Z,61.47
2022-12-09T20:59:26.290Z,62.83
2022-12-09T21:01:55.860Z,55.27
2022-12-09T21:04:24.591Z,52.63
2022-12-09T21:06:53.363Z,50.57
2022-12-09T21:09:26.930Z,47.63
2022-12-09T21:11:57.115Z,39.33
2022-12-09T21:14:32.432Z,53.80
2022-12-09T21:17:02.028Z,42.93
2022-12-09T21:19:32.428Z,41.67
2022-12-09T21:22:00.881Z,44.87
2022-12-09T21:24:29.377Z,45.50
2022-12-09T21:26:59.447Z,43.73
2022-12-09T21:29:31.991Z,54.33
2022-12-09T21:32:01.795Z,44.53
2022-12-09T21:34:30.754Z,53.17
2022-12-09T21:36:59.269Z,63.50
2022-12-09T21:39:29.136Z,58.07
2022-12-09T21:41:58.929Z,52.67
2022-12-09T21:44:28.248Z,51.07
2022-12-09T21:46:56.655Z,67.47
2022-12-09T21:49:25.317Z,48.47
2022-12-09T21:51:53.760Z,47.83
2022-12-09T21:54:22.244Z,52.07
2022-12-09T21:56:50.706Z,72.60
2022-12-09T21:59:20.531Z,39.77
2022-12-09T22:01:49.151Z,52.70
2022-12-09T22:04:17.881Z,48.17
2022-12-09T22:06:47.353Z,53.83
2022-12-09T22:09:16.894Z,57.73
2022-12-09T22:11:45.302Z,68.10
2022-12-09T22:14:13.850Z,76.70
2022-12-09T22:16:45.598Z,52.60
2022-12-09T22:19:16.291Z,47.73
2022-12-09T22:21:44.718Z,45.80
2022-12-09T22:24:14.296Z,44.27
2022-12-09T22:26:44.165Z,46.23
2022-12-09T22:29:14.672Z,45.40
2022-12-09T22:31:45.410Z,56.93
2022-12-09T22:34:17.378Z,42.20
2022-12-09T22:36:45.967Z,44.17
2022-12-09T22:39:15.688Z,51.03
2022-12-09T22:41:45.904Z,48.13
2022-12-09T22:44:16.407Z,51.13
2022-12-09T22:46:46.538Z,50.20
2022-12-09T22:49:16.790Z,40.93
2022-12-09T22:51:45.949Z,49.97
2022-12-09T22:54:15.047Z,54.27
2022-12-09T22:56:45.198Z,53.37
2022-12-09T22:59:14.733Z,54.80
2022-12-09T23:01:47.538Z,49.03
2022-12-09T23:04:18.515Z,46.93
2022-12-09T23:06:47.006Z,53.97
2022-12-09T23:09:18.543Z,52.60
2022-12-09T23:11:47.440Z,62.20
2022-12-09T23:14:16.596Z,49.80
2022-12-09T23:16:46.888Z,62.30
2022-12-09T23:19:16.606Z,54.30
2022-12-09T23:21:45.059Z,61.13
2022-12-09T23:24:18.471Z,60.73
2022-12-09T23:26:51.282Z,49.47
2022-12-09T23:29:19.730Z,54.73
2022-12-09T23:31:49.542Z,55.80
2022-12-09T23:34:18.103Z,50.00
2022-12-09T23:36:47.223Z,52.23
2022-12-09T23:39:18.147Z,46.70
2022-12-09T23:41:47.528Z,47.30
2022-12-09T23:44:18.543Z,58.60
2022-12-09T23:46:47.082Z,49.80
2022-12-09T23:49:18.007Z,52.77
2022-12-09T23:51:46.539Z,58.37
2022-12-09T23:54:17.066Z,48.67
2022-12-09T23:56:49.594Z,52.27
2022-12-09T23:59:21.103Z,50.67
